Time;durP1;ratioP1;P1;durP2;ratioP2;P2;SDS_P1;SDS_P2;PMS_P1;PMS_P2;Temp;Humidity;BMP_temperature;BMP_pressure;BME280_temperature;BME280_humidity;BME280_pressure;Samples;Min_cycle;Max_cycle;Signal;HPM_P1;HPM_P2
2022/11/09 00:00:53;;;;;;;19.20;8.47;;;10.80;99.90;;;;;;4915848;29;20206;-79
2022/11/09 00:03:21;;;;;;;15.17;8.13;;;10.80;99.90;;;;;;4915932;29;20204;-79
2022/11/09 00:05:55;;;;;;;15.63;8.97;;;10.80;99.90;;;;;;4916127;29;20277;-79
2022/11/09 00:08:22;;;;;;;15.53;8.50;;;10.80;99.90;;;;;;4915469;29;20289;-77
2022/11/09 00:10:49;;;;;;;17.37;9.17;;;10.80;99.90;;;;;;4915365;29;20679;-77
2022/11/09 00:13:16;;;;;;;16.67;9.47;;;10.80;99.90;;;;;;4915788;29;20232;-77
2022/11/09 00:15:43;;;;;;;22.23;10.03;;;10.80;96.40;;;;;;4915656;29;20186;-78
2022/11/09 00:18:10;;;;;;;22.30;9.67;;;10.80;80.10;;;;;;4915950;29;20287;-79
2022/11/09 00:20:40;;;;;;;20.80;9.67;;;10.80;49.00;;;;;;4915985;29;20205;-78
2022/11/09 00:23:07;;;;;;;15.53;8.47;;;10.80;49.60;;;;;;4915670;29;20188;-77
2022/11/09 00:25:34;;;;;;;17.40;9.87;;;10.80;21.10;;;;;;4915852;29;20256;-77
2022/11/09 00:28:01;;;;;;;18.50;9.20;;;10.90;12.80;;;;;;4915573;29;20200;-75
2022/11/09 00:30:29;;;;;;;17.67;9.00;;;10.90;2.80;;;;;;4915902;29;20258;-77
2022/11/09 00:32:56;;;;;;;16.07;8.30;;;10.90;1.00;;;;;;4915830;29;20199;-76
2022/11/09 00:35:23;;;;;;;17.27;8.03;;;10.90;1.00;;;;;;4915827;29;20206;-78
2022/11/09 00:37:52;;;;;;;12.40;7.83;;;10.90;1.00;;;;;;4915463;29;20230;-77
2022/11/09 00:40:19;;;;;;;13.23;7.97;;;10.90;1.00;;;;;;4915441;29;20673;-76
2022/11/09 00:42:46;;;;;;;11.70;7.70;;;10.90;1.00;;;;;;4915857;29;20203;-78
2022/11/09 00:45:13;;;;;;;13.50;8.10;;;10.90;1.00;;;;;;4915555;29;20223;-77
2022/11/09 00:47:40;;;;;;;10.73;7.53;;;10.90;1.00;;;;;;4915742;29;20224;-77
2022/11/09 00:50:08;;;;;;;15.97;8.30;;;10.90;1.00;;;;;;4915909;29;20211;-77
2022/11/09 00:52:35;;;;;;;12.80;7.50;;;10.80;1.00;;;;;;4915901;29;20203;-78
2022/11/09 00:55:04;;;;;;;11.80;7.37;;;10.80;1.00;;;;;;4915206;29;20197;-78
2022/11/09 00:57:31;;;;;;;11.73;7.13;;;10.90;1.00;;;;;;4915264;29;20218;-78
2022/11/09 00:59:58;;;;;;;11.93;7.60;;;10.90;1.00;;;;;;4915321;29;20664;-78
2022/11/09 01:02:25;;;;;;;11.43;7.13;;;10.90;1.00;;;;;;4915578;29;20263;-78
2022/11/09 01:04:52;;;;;;;12.20;7.10;;;10.80;1.00;;;;;;4915307;29;20204;-78
2022/11/09 01:07:19;;;;;;;11.83;7.33;;;10.80;1.00;;;;;;4915565;29;20620;-77
2022/11/09 01:09:46;;;;;;;10.53;7.47;;;10.80;1.00;;;;;;4915532;29;20208;-78
2022/11/09 01:12:14;;;;;;;10.83;7.37;;;10.70;1.00;;;;;;4914983;29;20720;-77
2022/11/09 01:14:41;;;;;;;10.37;7.70;;;10.70;1.00;;;;;;4915005;29;20265;-79
2022/11/09 01:17:08;;;;;;;9.53;7.20;;;10.70;1.00;;;;;;4915644;29;20260;-78
2022/11/09 01:19:35;;;;;;;11.83;7.20;;;10.70;1.00;;;;;;4915529;29;20204;-78
2022/11/09 01:22:02;;;;;;;11.83;7.83;;;10.70;1.00;;;;;;4916619;29;20197;-78
2022/11/09 01:24:29;;;;;;;10.97;7.13;;;10.70;1.00;;;;;;4918943;29;20199;-77
2022/11/09 01:26:56;;;;;;;10.50;7.00;;;10.70;1.00;;;;;;4918724;29;20198;-78
2022/11/09 01:29:25;;;;;;;10.07;7.13;;;10.70;1.00;;;;;;4918534;29;20205;-77
2022/11/09 01:31:54;;;;;;;13.07;7.77;;;10.80;1.00;;;;;;4918733;29;20199;-78
2022/11/09 01:34:21;;;;;;;11.27;7.87;;;10.80;1.00;;;;;;4918459;29;20255;-77
2022/11/09 01:36:50;;;;;;;15.20;7.47;;;10.80;1.00;;;;;;4918565;29;20235;-77
2022/11/09 01:39:18;;;;;;;13.00;7.30;;;10.80;1.00;;;;;;4918568;29;20268;-77
2022/11/09 01:41:45;;;;;;;12.17;7.50;;;10.80;1.00;;;;;;4918555;29;20252;-78
2022/11/09 01:44:15;;;;;;;14.10;8.23;;;10.80;1.00;;;;;;4918072;29;20260;-79
2022/11/09 01:46:50;;;;;;;12.53;7.80;;;10.80;1.00;;;;;;4918685;29;20203;-77
2022/11/09 01:49:24;;;;;;;12.53;7.27;;;10.80;1.00;;;;;;4918193;29;20192;-79
2022/11/09 01:51:55;;;;;;;11.40;7.57;;;10.80;1.00;;;;;;4918181;29;20191;-79
2022/11/09 01:54:27;;;;;;;11.30;7.53;;;10.80;1.00;;;;;;4918083;29;20221;-76
2022/11/09 01:56:57;;;;;;;11.33;7.53;;;10.80;1.00;;;;;;4918289;29;20264;-78
2022/11/09 01:59:29;;;;;;;15.70;7.63;;;10.80;1.00;;;;;;4918017;29;20188;-78
2022/11/09 02:01:57;;;;;;;13.43;8.17;;;10.80;1.00;;;;;;4917902;29;20597;-76
2022/11/09 02:04:29;;;;;;;12.93;7.50;;;10.70;1.00;;;;;;4917878;29;20211;-77
2022/11/09 02:06:58;;;;;;;15.83;7.80;;;10.70;1.00;;;;;;4922921;29;20603;-78
2022/11/09 02:09:28;;;;;;;11.93;7.47;;;10.60;1.00;;;;;;4937104;29;20199;-77
2022/11/09 02:11:56;;;;;;;10.10;7.20;;;10.50;1.00;;;;;;4937037;29;20639;-77
2022/11/09 02:14:26;;;;;;;13.70;8.43;;;10.50;31.70;;;;;;4936627;29;20229;-78
2022/11/09 02:16:53;;;;;;;12.00;8.17;;;10.50;99.90;;;;;;4936624;29;20208;-78
2022/11/09 02:19:21;;;;;;;12.67;8.10;;;10.40;99.90;;;;;;4936556;29;20259;-78
2022/11/09 02:21:50;;;;;;;11.03;7.67;;;10.40;99.90;;;;;;4936521;29;20687;-78
2022/11/09 02:24:18;;;;;;;13.67;8.17;;;10.40;99.90;;;;;;4936530;29;20207;-78
2022/11/09 02:26:48;;;;;;;11.90;8.47;;;10.40;99.90;;;;;;4936817;29;20209;-78
2022/11/09 02:29:19;;;;;;;12.50;8.53;;;10.40;1.00;;;;;;4936483;29;20657;-77
2022/11/09 02:31:49;;;;;;;14.73;7.70;;;10.30;99.90;;;;;;4936465;29;20183;-78
2022/11/09 02:34:18;;;;;;;12.17;7.43;;;10.30;99.90;;;;;;4925406;29;20200;-78
2022/11/09 02:36:46;;;;;;;12.53;7.43;;;10.20;99.90;;;;;;4917638;29;20247;-78
2022/11/09 02:39:16;;;;;;;12.97;7.77;;;10.20;1.00;;;;;;4917764;29;20204;-77
2022/11/09 02:41:48;;;;;;;12.20;7.50;;;10.10;1.00;;;;;;4917804;29;20250;-78
2022/11/09 02:44:16;;;;;;;12.57;7.87;;;10.10;1.00;;;;;;4929301;29;20194;-79
2022/11/09 02:46:43;;;;;;;19.27;13.00;;;10.10;1.00;;;;;;4936616;29;20198;-78
2022/11/09 02:49:10;;;;;;;19.77;10.93;;;10.00;1.00;;;;;;4934710;29;20192;-78
2022/11/09 02:51:38;;;;;;;17.67;9.60;;;10.00;12.10;;;;;;4936007;29;20199;-78
2022/11/09 02:54:05;;;;;;;15.47;9.10;;;10.00;99.90;;;;;;4936269;29;20203;-78
2022/11/09 02:56:33;;;;;;;15.10;9.87;;;10.00;99.90;;;;;;4936135;29;20206;-79
2022/11/09 02:59:02;;;;;;;16.60;9.43;;;10.00;99.90;;;;;;4934218;29;20231;-79
2022/11/09 03:01:29;;;;;;;12.37;8.57;;;10.00;99.90;;;;;;4936155;29;20289;-78
2022/11/09 03:03:56;;;;;;;12.17;8.00;;;10.00;99.90;;;;;;4935681;29;20212;-78
2022/11/09 03:06:33;;;;;;;12.77;8.47;;;10.00;99.90;;;;;;4935645;29;20203;-78
2022/11/09 03:09:00;;;;;;;11.77;8.40;;;10.00;99.90;;;;;;4935769;29;20633;-79
2022/11/09 03:11:27;;;;;;;11.23;7.97;;;10.00;99.90;;;;;;4935642;29;20664;-78
2022/11/09 03:13:56;;;;;;;13.43;8.50;;;10.00;99.90;;;;;;4935412;29;20722;-77
2022/11/09 03:16:23;;;;;;;16.13;8.80;;;9.90;99.90;;;;;;4935687;29;20202;-78
2022/11/09 03:18:51;;;;;;;12.60;8.03;;;9.90;1.00;;;;;;4935501;29;20729;-77
2022/11/09 03:21:18;;;;;;;13.80;8.33;;;9.90;1.00;;;;;;4935949;29;20205;-79
2022/11/09 03:23:45;;;;;;;12.10;8.50;;;9.90;1.00;;;;;;4929011;29;20604;-76
2022/11/09 03:26:12;;;;;;;12.77;8.97;;;9.80;1.00;;;;;;4916721;29;20263;-77
2022/11/09 03:28:39;;;;;;;14.23;9.57;;;9.80;1.00;;;;;;4916607;29;20201;-80
2022/11/09 03:31:08;;;;;;;17.30;9.97;;;9.80;1.00;;;;;;4916708;29;20204;-79
2022/11/09 03:33:35;;;;;;;14.57;9.00;;;9.80;10.80;;;;;;4916576;29;20261;-79
2022/11/09 03:36:02;;;;;;;14.03;8.80;;;9.70;13.50;;;;;;4916570;29;20205;-79
2022/11/09 03:38:30;;;;;;;13.50;9.10;;;9.70;56.00;;;;;;4916401;29;20221;-77
2022/11/09 03:41:00;;;;;;;15.47;9.03;;;9.70;66.70;;;;;;4916212;29;20210;-78
2022/11/09 03:43:29;;;;;;;16.73;8.73;;;9.60;99.90;;;;;;4916139;29;20190;-80
2022/11/09 03:45:56;;;;;;;16.03;9.20;;;9.60;99.90;;;;;;4915398;29;20250;-76
2022/11/09 03:48:25;;;;;;;13.97;9.10;;;9.60;99.90;;;;;;4916356;29;20209;-78
2022/11/09 03:50:52;;;;;;;14.20;8.93;;;9.50;99.90;;;;;;4915952;29;20744;-79
2022/11/09 03:53:19;;;;;;;17.30;8.80;;;9.50;1.00;;;;;;4916559;29;20204;-78
2022/11/09 03:55:46;;;;;;;15.57;8.80;;;9.50;1.00;;;;;;4916522;29;20572;-78
2022/11/09 03:58:13;;;;;;;13.23;8.97;;;9.50;1.00;;;;;;4916102;29;20221;-78
2022/11/09 04:00:40;;;;;;;15.93;9.83;;;9.40;1.00;;;;;;4920360;29;20204;-78
2022/11/09 04:03:07;;;;;;;13.70;9.53;;;9.40;1.00;;;;;;4935112;29;20208;-77
2022/11/09 04:05:36;;;;;;;15.57;10.57;;;9.30;1.00;;;;;;4935173;29;20211;-77
2022/11/09 04:08:03;;;;;;;21.30;12.67;;;9.30;1.00;;;;;;4935065;29;20261;-76
2022/11/09 04:10:30;;;;;;;15.20;10.00;;;9.30;1.00;;;;;;4934744;29;20679;-79
2022/11/09 04:12:57;;;;;;;12.13;9.50;;;9.30;1.00;;;;;;4934353;29;20200;-79
2022/11/09 04:15:24;;;;;;;12.70;9.20;;;9.30;1.00;;;;;;4932938;29;20248;-78
2022/11/09 04:17:55;;;;;;;16.20;9.23;;;9.20;1.00;;;;;;4917718;29;20224;-79
2022/11/09 04:20:23;;;;;;;13.27;9.83;;;9.20;1.00;;;;;;4916305;29;20211;-78
2022/11/09 04:22:56;;;;;;;15.80;11.20;;;9.20;1.00;;;;;;4916167;29;20213;-76
2022/11/09 04:25:24;;;;;;;15.10;9.33;;;9.20;1.00;;;;;;4915885;29;20185;-79
2022/11/09 04:27:55;;;;;;;12.33;9.13;;;9.10;1.00;;;;;;4916068;29;20212;-78
2022/11/09 04:30:22;;;;;;;16.37;10.90;;;9.10;10.70;;;;;;4921869;29;20248;-78
2022/11/09 04:32:49;;;;;;;12.73;9.90;;;9.10;99.90;;;;;;4935219;29;20207;-76
2022/11/09 04:35:16;;;;;;;15.57;9.80;;;9.00;99.90;;;;;;4924609;29;20204;-78
2022/11/09 04:37:43;;;;;;;14.30;9.77;;;9.10;99.90;;;;;;4915520;29;20791;-77
2022/11/09 04:40:12;;;;;;;12.63;9.07;;;9.00;99.90;;;;;;4916823;29;20209;-79
2022/11/09 04:42:39;;;;;;;12.97;9.20;;;9.00;99.90;;;;;;4919692;29;20627;-79
2022/11/09 04:45:07;;;;;;;14.47;9.87;;;9.00;99.90;;;;;;4923751;29;20296;-79
2022/11/09 04:47:34;;;;;;;14.70;9.37;;;9.10;1.00;;;;;;4919579;29;20639;-78
2022/11/09 04:50:01;;;;;;;13.23;9.23;;;9.00;1.00;;;;;;4915854;29;20264;-77
2022/11/09 04:52:28;;;;;;;13.83;9.57;;;9.00;1.00;;;;;;4916007;29;20249;-77
2022/11/09 04:54:55;;;;;;;18.80;9.53;;;9.10;1.00;;;;;;4915996;29;20201;-78
2022/11/09 04:57:24;;;;;;;13.13;9.80;;;9.10;1.00;;;;;;4917846;29;20218;-77
2022/11/09 04:59:51;;;;;;;12.23;9.77;;;9.10;1.00;;;;;;4923286;29;20536;-77
2022/11/09 05:02:17;;;;;;;16.40;9.83;;;9.10;1.00;;;;;;4938570;29;20259;-77
2022/11/09 05:04:44;;;;;;;16.90;11.70;;;9.10;1.00;;;;;;4937903;29;20200;-78
2022/11/09 05:07:11;;;;;;;17.10;13.03;;;9.10;1.00;;;;;;4928427;29;20251;-76
2022/11/09 05:09:39;;;;;;;16.70;10.50;;;9.10;1.00;;;;;;4919130;29;20211;-77
2022/11/09 05:12:07;;;;;;;15.67;10.50;;;9.10;1.00;;;;;;4919710;29;20200;-79
2022/11/09 05:14:42;;;;;;;17.87;11.00;;;9.10;1.00;;;;;;4935185;29;20236;-79
2022/11/09 05:17:18;;;;;;;16.57;11.30;;;9.10;1.00;;;;;;4935946;29;20288;-80
2022/11/09 05:19:49;;;;;;;17.60;11.53;;;9.10;1.00;;;;;;4936360;29;20293;-80
2022/11/09 05:25:20;;;;;;;19.47;12.97;;;9.20;1.00;;;;;;4935542;29;20279;-80
2022/11/09 05:27:57;;;;;;;23.43;12.87;;;9.30;99.90;;;;;;4935145;29;20208;-78
2022/11/09 05:33:29;;;;;;;19.13;11.47;;;9.20;99.90;;;;;;4934133;29;20707;-77
2022/11/09 05:36:07;;;;;;;16.23;11.23;;;9.20;1.00;;;;;;4934861;29;20209;-77
2022/11/09 05:38:51;;;;;;;19.83;12.50;;;9.20;1.00;;;;;;4950174;29;20306;-79
2022/11/09 05:41:25;;;;;;;17.70;12.30;;;9.20;66.50;;;;;;4953754;28;20203;-79
2022/11/09 05:43:56;;;;;;;20.60;11.20;;;9.10;88.20;;;;;;4954064;28;20200;-80
2022/11/09 05:46:32;;;;;;;13.90;11.03;;;9.10;69.60;;;;;;4938388;29;20233;-76
2022/11/09 05:49:15;;;;;;;14.13;10.93;;;9.10;76.70;;;;;;4916424;29;20208;-79
2022/11/09 05:51:49;;;;;;;16.40;11.43;;;9.00;99.90;;;;;;4934187;29;20205;-79
2022/11/09 05:54:20;;;;;;;14.80;10.37;;;9.00;99.90;;;;;;4915578;29;20269;-78
2022/11/09 05:56:50;;;;;;;19.17;12.27;;;9.00;99.90;;;;;;4920073;29;20198;-79
2022/11/09 05:59:39;;;;;;;19.57;15.27;;;9.00;99.90;;;;;;4934735;29;20224;-79
2022/11/09 06:02:15;;;;;;;21.03;13.57;;;9.00;99.90;;;;;;4934471;29;20222;-77
2022/11/09 06:04:54;;;;;;;17.50;12.33;;;9.00;99.90;;;;;;4934954;29;20257;-79
2022/11/09 06:07:24;;;;;;;15.60;11.83;;;8.90;99.90;;;;;;4935382;29;20194;-79
2022/11/09 06:10:06;;;;;;;16.33;11.33;;;9.00;99.90;;;;;;4933446;29;20257;-80
2022/11/09 06:12:51;;;;;;;20.00;13.40;;;9.00;99.90;;;;;;4934472;29;20227;-78
2022/11/09 06:15:28;;;;;;;23.20;14.37;;;9.10;99.90;;;;;;4929605;29;20228;-77
2022/11/09 06:17:58;;;;;;;19.70;12.67;;;9.10;99.90;;;;;;4909321;29;20223;-78
2022/11/09 06:20:26;;;;;;;25.17;13.33;;;9.20;99.90;;;;;;4899614;29;20566;-78
2022/11/09 06:23:00;;;;;;;21.03;13.20;;;9.30;14.40;;;;;;4901091;29;20340;-80
2022/11/09 06:25:28;;;;;;;19.70;12.40;;;9.40;1.00;;;;;;4906236;29;20659;-78
2022/11/09 06:27:56;;;;;;;19.77;13.50;;;9.40;1.00;;;;;;4899169;29;20207;-78
2022/11/09 06:30:23;;;;;;;19.57;12.57;;;9.50;1.00;;;;;;4898933;29;20212;-79
2022/11/09 06:32:51;;;;;;;23.80;13.33;;;9.60;1.00;;;;;;4900662;29;20272;-80
2022/11/09 06:35:21;;;;;;;21.57;13.37;;;9.70;1.00;;;;;;4902837;29;20546;-80
2022/11/09 06:37:48;;;;;;;19.67;13.20;;;9.80;99.90;;;;;;4903672;29;20234;-80
2022/11/09 06:40:15;;;;;;;21.40;13.13;;;9.90;99.90;;;;;;4898919;29;20209;-77
2022/11/09 06:42:42;;;;;;;19.33;12.00;;;9.90;99.90;;;;;;4901319;29;20206;-78
2022/11/09 06:45:10;;;;;;;17.13;11.57;;;10.00;99.90;;;;;;4898887;29;20204;-75
2022/11/09 06:47:37;;;;;;;21.67;11.53;;;10.10;1.70;;;;;;4898842;29;20206;-77
2022/11/09 06:50:04;;;;;;;15.90;11.53;;;10.20;1.00;;;;;;4898804;29;20629;-75
2022/11/09 06:52:32;;;;;;;20.57;11.80;;;10.20;1.00;;;;;;4898920;29;20210;-77
2022/11/09 06:54:59;;;;;;;18.90;12.63;;;10.20;1.00;;;;;;4917511;29;20203;-77
2022/11/09 06:57:29;;;;;;;19.93;12.77;;;10.20;1.00;;;;;;4898323;29;20199;-78
2022/11/09 06:59:59;;;;;;;16.60;11.30;;;10.30;1.00;;;;;;4898911;29;20206;-76
2022/11/09 07:02:26;;;;;;;16.17;11.83;;;10.30;1.00;;;;;;4898589;29;20203;-78
2022/11/09 07:04:53;;;;;;;17.23;11.50;;;10.30;99.90;;;;;;4898163;29;20731;-78
2022/11/09 07:07:20;;;;;;;19.07;12.73;;;10.30;99.90;;;;;;4898497;29;20240;-77
2022/11/09 07:09:48;;;;;;;17.73;11.67;;;10.40;99.90;;;;;;4898473;29;20198;-77
2022/11/09 07:12:15;;;;;;;17.07;11.33;;;10.40;75.80;;;;;;4898101;29;20674;-77
2022/11/09 07:14:42;;;;;;;15.60;11.07;;;10.50;1.00;;;;;;4898045;29;20585;-76
2022/11/09 07:17:09;;;;;;;13.87;10.27;;;10.60;1.00;;;;;;4901534;29;20214;-78
2022/11/09 07:19:40;;;;;;;18.97;10.83;;;10.70;1.00;;;;;;4907398;29;20227;-81
2022/11/09 07:22:07;;;;;;;17.73;10.83;;;10.70;99.90;;;;;;4905439;29;20581;-78
2022/11/09 07:24:34;;;;;;;24.53;14.03;;;10.80;99.90;;;;;;4898429;29;20278;-79
2022/11/09 07:27:02;;;;;;;25.47;13.73;;;10.80;54.20;;;;;;4898341;29;20208;-80
2022/11/09 07:29:29;;;;;;;22.23;13.70;;;10.80;1.00;;;;;;4897900;29;20202;-78
2022/11/09 07:31:59;;;;;;;20.57;14.10;;;10.80;1.00;;;;;;4899613;29;20204;-85
2022/11/09 07:34:27;;;;;;;19.77;14.23;;;10.90;1.00;;;;;;4901322;29;20204;-83
2022/11/09 07:36:54;;;;;;;30.43;21.23;;;10.90;1.00;;;;;;4900895;29;20204;-81
2022/11/09 07:39:22;;;;;;;55.50;33.27;;;10.90;1.00;;;;;;4908222;29;20226;-80
2022/11/09 07:41:50;;;;;;;39.97;22.87;;;10.90;1.00;;;;;;4903077;29;20210;-78
2022/11/09 07:44:18;;;;;;;45.50;17.07;;;11.00;1.00;;;;;;4897566;29;20196;-78
2022/11/09 07:46:47;;;;;;;29.93;22.63;;;10.90;1.00;;;;;;4900772;29;20233;-80
2022/11/09 07:49:15;;;;;;;32.30;21.67;;;10.90;1.00;;;;;;4897476;29;20207;-75
2022/11/09 07:51:43;;;;;;;20.90;14.90;;;11.00;1.00;;;;;;4898025;29;20207;-80
2022/11/09 07:54:10;;;;;;;20.10;14.20;;;11.00;1.00;;;;;;4900457;29;20203;-79
2022/11/09 07:56:38;;;;;;;18.47;13.73;;;11.10;1.00;;;;;;4897684;29;20206;-79
2022/11/09 07:59:05;;;;;;;19.10;14.07;;;11.30;99.90;;;;;;4899608;29;20224;-76
2022/11/09 08:01:33;;;;;;;19.77;14.50;;;11.40;99.90;;;;;;4900646;29;20217;-79
2022/11/09 08:04:01;;;;;;;21.33;14.13;;;11.50;99.90;;;;;;4897206;29;20669;-78
2022/11/09 08:06:32;;;;;;;17.73;13.63;;;11.60;25.60;;;;;;4906871;29;20214;-78
2022/11/09 08:08:59;;;;;;;21.13;15.27;;;11.80;1.00;;;;;;4903880;29;20240;-79
2022/11/09 08:11:27;;;;;;;20.57;14.20;;;12.00;1.00;;;;;;4897215;29;20202;-77
2022/11/09 08:13:58;;;;;;;33.57;17.33;;;12.20;1.00;;;;;;4909712;29;20234;-77
2022/11/09 08:16:25;;;;;;;25.93;13.00;;;12.30;99.90;;;;;;4899079;29;20277;-78
2022/11/09 08:18:54;;;;;;;20.70;14.43;;;12.40;99.90;;;;;;4905514;29;20279;-79
2022/11/09 08:21:21;;;;;;;12.63;10.50;;;12.50;99.90;;;;;;4897444;29;20202;-79
2022/11/09 08:23:49;;;;;;;20.07;11.80;;;12.50;99.90;;;;;;4901462;29;20203;-79
2022/11/09 08:26:16;;;;;;;16.40;12.43;;;12.50;41.80;;;;;;4903078;29;20203;-79
2022/11/09 08:28:43;;;;;;;27.67;11.67;;;12.50;1.00;;;;;;4897246;29;20207;-80
2022/11/09 08:31:10;;;;;;;18.27;12.17;;;12.50;1.00;;;;;;4897305;29;20254;-79
2022/11/09 08:33:39;;;;;;;26.70;11.43;;;12.40;1.00;;;;;;4901051;29;20621;-78
2022/11/09 08:36:12;;;;;;;15.33;10.80;;;12.40;1.00;;;;;;4905085;29;20665;-79
2022/11/09 08:38:39;;;;;;;14.90;10.97;;;12.40;1.00;;;;;;4901039;29;20203;-79
2022/11/09 08:41:07;;;;;;;13.80;10.87;;;12.40;1.00;;;;;;4901050;29;20198;-78
2022/11/09 08:43:34;;;;;;;38.67;13.13;;;12.40;1.00;;;;;;4901076;29;20211;-77
2022/11/09 08:46:01;;;;;;;24.30;18.00;;;12.40;1.00;;;;;;4904885;29;20236;-78
2022/11/09 08:48:29;;;;;;;25.00;12.97;;;12.40;1.00;;;;;;4904074;29;20199;-77
2022/11/09 08:50:58;;;;;;;29.20;13.63;;;12.40;1.00;;;;;;4914723;29;20207;-81
2022/11/09 08:53:29;;;;;;;23.90;13.23;;;12.40;1.00;;;;;;4920705;29;20205;-77
2022/11/09 08:55:56;;;;;;;23.73;13.53;;;12.50;1.00;;;;;;4907710;29;20200;-79
2022/11/09 08:58:23;;;;;;;27.33;14.10;;;12.60;1.00;;;;;;4900700;29;20228;-79
2022/11/09 09:00:51;;;;;;;19.17;13.07;;;12.70;1.00;;;;;;4900805;29;20664;-80
2022/11/09 09:03:20;;;;;;;23.23;14.00;;;12.80;1.00;;;;;;4903850;29;20209;-82
2022/11/09 09:05:47;;;;;;;19.63;13.80;;;12.80;1.00;;;;;;4902740;29;20554;-76
2022/11/09 09:08:17;;;;;;;31.50;13.63;;;12.90;1.00;;;;;;4918532;29;20205;-79
2022/11/09 09:10:45;;;;;;;33.33;20.27;;;12.90;1.00;;;;;;4911298;29;20208;-79
2022/11/09 09:13:12;;;;;;;20.43;13.97;;;12.90;1.00;;;;;;4900358;29;20201;-79
2022/11/09 09:15:39;;;;;;;33.40;16.60;;;13.00;1.00;;;;;;4900728;29;20238;-79
2022/11/09 09:18:07;;;;;;;21.47;12.90;;;13.00;1.00;;;;;;4900992;29;20209;-78
2022/11/09 09:20:34;;;;;;;19.43;12.23;;;13.00;1.00;;;;;;4905288;29;20205;-76
2022/11/09 09:23:04;;;;;;;15.50;12.67;;;13.00;1.00;;;;;;4906368;29;20209;-82
2022/11/09 09:25:32;;;;;;;15.07;10.43;;;13.10;1.00;;;;;;4904959;29;20196;-78
2022/11/09 09:28:00;;;;;;;19.57;11.43;;;13.20;1.00;;;;;;4905583;29;20207;-78
2022/11/09 09:30:27;;;;;;;16.70;14.83;;;13.20;1.00;;;;;;4903259;29;20612;-78
2022/11/09 09:32:59;;;;;;;22.93;11.37;;;13.20;1.00;;;;;;4902547;29;20202;-78
2022/11/09 09:35:27;;;;;;;15.00;10.67;;;13.10;1.00;;;;;;4900570;29;20192;-78
2022/11/09 09:37:54;;;;;;;19.80;12.43;;;13.10;1.00;;;;;;4899833;29;20322;-77
2022/11/09 09:40:25;;;;;;;19.13;13.43;;;13.10;1.00;;;;;;4905011;29;20218;-77
2022/11/09 09:42:54;;;;;;;18.30;12.17;;;13.10;1.00;;;;;;4901421;29;20660;-79
2022/11/09 09:45:50;;;;;;;20.23;11.77;;;13.10;1.00;;;;;;4903715;29;20663;-80
2022/11/09 09:48:55;;;;;;;22.80;11.47;;;13.10;1.00;;;;;;4899654;29;20644;-80
2022/11/09 09:51:29;;;;;;;15.87;9.97;;;13.00;1.00;;;;;;4909756;29;20234;-83
2022/11/09 09:54:01;;;;;;;15.27;9.07;;;13.00;1.00;;;;;;4904911;29;20280;-77
2022/11/09 09:56:33;;;;;;;12.40;8.60;;;13.10;1.00;;;;;;4903742;29;20196;-80
2022/11/09 09:59:06;;;;;;;14.87;9.07;;;13.10;1.00;;;;;;4901162;29;20213;-79
2022/11/09 10:01:38;;;;;;;15.23;10.53;;;13.20;1.00;;;;;;4899717;29;20288;-79
2022/11/09 10:04:15;;;;;;;12.77;8.70;;;13.30;1.00;;;;;;4899658;29;20194;-79
2022/11/09 10:07:02;;;;;;;14.60;9.77;;;13.30;1.00;;;;;;4914045;29;20210;-81
2022/11/09 10:09:41;;;;;;;14.80;10.93;;;13.20;1.00;;;;;;4899366;29;20185;-78
2022/11/09 10:12:18;;;;;;;13.13;9.50;;;13.20;1.00;;;;;;4899563;29;20197;-77
2022/11/09 10:15:13;;;;;;;10.70;7.67;;;13.10;1.00;;;;;;4902068;29;20270;-79
2022/11/09 10:17:51;;;;;;;11.43;7.97;;;13.10;1.00;;;;;;4901489;29;20189;-79
2022/11/09 10:20:38;;;;;;;11.03;7.67;;;13.00;1.00;;;;;;4906529;29;20224;-80
2022/11/09 10:23:26;;;;;;;29.13;19.57;;;13.00;1.00;;;;;;4899359;29;20190;-78
2022/11/09 10:26:10;;;;;;;10.87;9.47;;;13.00;1.00;;;;;;4899051;29;20202;-77
2022/11/09 10:28:41;;;;;;;13.77;7.93;;;13.00;1.00;;;;;;4898961;29;20269;-76
2022/11/09 10:31:15;;;;;;;9.63;7.47;;;12.90;9.50;;;;;;4899265;29;20193;-76
2022/11/09 10:33:46;;;;;;;11.57;7.67;;;12.90;99.90;;;;;;4904717;29;20191;-78
2022/11/09 10:36:22;;;;;;;11.80;9.20;;;12.90;99.90;;;;;;4899037;29;20196;-78
2022/11/09 10:38:55;;;;;;;12.23;9.30;;;12.80;99.90;;;;;;4898776;29;20208;-75
2022/11/09 10:41:29;;;;;;;15.87;8.60;;;12.80;99.90;;;;;;4898689;29;20279;-78
2022/11/09 10:43:57;;;;;;;15.83;9.30;;;12.80;99.90;;;;;;4898673;29;20584;-76
2022/11/09 10:46:24;;;;;;;15.07;9.37;;;12.80;1.00;;;;;;4898898;29;20260;-78
2022/11/09 10:48:54;;;;;;;14.87;9.33;;;12.80;1.00;;;;;;4898860;29;20294;-77
2022/11/09 10:51:40;;;;;;;12.90;9.10;;;12.80;1.00;;;;;;4898544;29;20188;-78
2022/11/09 10:54:23;;;;;;;12.73;8.83;;;12.70;1.00;;;;;;4914981;29;20188;-81
2022/11/09 10:57:05;;;;;;;14.07;9.37;;;12.80;1.00;;;;;;4917986;29;20199;-78
2022/11/09 10:59:49;;;;;;;11.27;8.63;;;12.80;1.00;;;;;;4913518;29;20249;-77
2022/11/09 11:02:42;;;;;;;14.33;8.63;;;12.70;1.00;;;;;;4898545;29;20192;-78
2022/11/09 11:05:31;;;;;;;14.27;10.23;;;12.70;1.00;;;;;;4898348;29;20197;-78
2022/11/09 11:08:20;;;;;;;13.53;8.67;;;12.70;1.00;;;;;;4898231;29;20213;-78
2022/11/09 11:10:47;;;;;;;16.07;9.70;;;12.70;1.00;;;;;;4898430;29;20269;-76
2022/11/09 11:13:23;;;;;;;12.60;8.63;;;12.60;91.80;;;;;;4898145;29;20208;-77
2022/11/09 11:15:51;;;;;;;14.63;9.07;;;12.60;99.90;;;;;;4898173;29;20180;-78
2022/11/09 11:18:22;;;;;;;13.30;8.97;;;12.60;99.90;;;;;;4898532;29;20208;-77
2022/11/09 11:21:06;;;;;;;16.70;10.07;;;12.70;99.90;;;;;;4898482;29;20595;-78
2022/11/09 11:23:35;;;;;;;13.77;8.80;;;12.70;99.90;;;;;;4897932;29;20725;-78
2022/11/09 11:26:31;;;;;;;13.93;8.67;;;12.80;99.90;;;;;;4898192;29;20208;-78
2022/11/09 11:29:01;;;;;;;16.43;8.53;;;12.80;1.00;;;;;;4898085;29;20205;-76
2022/11/09 11:31:29;;;;;;;14.50;10.27;;;12.90;99.90;;;;;;4898397;29;20208;-78
2022/11/09 11:33:57;;;;;;;13.47;9.30;;;13.00;99.90;;;;;;4898045;29;20255;-79
2022/11/09 11:36:33;;;;;;;12.53;8.70;;;13.10;99.90;;;;;;4897961;29;20209;-77
2022/11/09 11:39:12;;;;;;;14.27;9.00;;;13.20;99.90;;;;;;4897900;29;20193;-78
2022/11/09 11:42:02;;;;;;;11.00;8.10;;;13.30;99.90;;;;;;4897925;29;20243;-78
2022/11/09 11:44:46;;;;;;;11.40;8.10;;;13.50;99.90;;;;;;4897872;29;20209;-79
2022/11/09 11:47:23;;;;;;;12.20;7.90;;;13.60;99.90;;;;;;4897890;29;20197;-78
2022/11/09 11:50:25;;;;;;;12.97;8.23;;;13.70;1.00;;;;;;4898084;29;20185;-77
2022/11/09 11:53:13;;;;;;;11.53;8.20;;;13.70;1.00;;;;;;4898172;29;20207;-78
2022/11/09 11:55:56;;;;;;;13.40;8.47;;;13.70;1.00;;;;;;4900631;29;20186;-79
2022/11/09 12:01:35;;;;;;;14.80;9.10;;;13.60;1.00;;;;;;4901446;29;20624;-77
2022/11/09 12:04:15;;;;;;;14.13;9.40;;;13.60;1.00;;;;;;4897361;29;20180;-76
2022/11/09 12:06:55;;;;;;;12.80;8.93;;;13.60;1.00;;;;;;4896774;29;20193;-77
2022/11/09 12:09:43;;;;;;;12.33;9.60;;;13.60;1.00;;;;;;4900999;29;20667;-82
2022/11/09 12:12:24;;;;;;;12.07;8.83;;;13.50;1.00;;;;;;4903466;29;20209;-78
2022/11/09 12:15:00;;;;;;;15.33;9.13;;;13.50;1.00;;;;;;4898768;29;20237;-76
2022/11/09 12:17:36;;;;;;;13.47;9.53;;;13.50;1.00;;;;;;4897523;29;20250;-75
2022/11/09 12:20:20;;;;;;;15.23;10.43;;;13.50;1.00;;;;;;4897065;29;20549;-76
2022/11/09 12:22:54;;;;;;;15.60;9.37;;;13.50;1.00;;;;;;4897144;29;20241;-78
2022/11/09 12:25:29;;;;;;;15.10;9.57;;;13.60;1.00;;;;;;4897442;29;20280;-76
2022/11/09 12:28:21;;;;;;;13.27;9.77;;;13.60;1.00;;;;;;4897315;29;20198;-77
2022/11/09 12:30:59;;;;;;;15.80;10.60;;;13.60;1.00;;;;;;4897383;29;20605;-76
2022/11/09 12:36:27;;;;;;;15.67;10.23;;;13.70;1.00;;;;;;4902048;29;20208;-78
2022/11/09 12:39:00;;;;;;;13.83;9.73;;;13.80;1.00;;;;;;4900593;29;20192;-79
2022/11/09 12:41:34;;;;;;;13.83;9.57;;;13.90;1.00;;;;;;4897237;29;20631;-78
2022/11/09 12:44:06;;;;;;;14.87;10.40;;;13.90;1.00;;;;;;4897279;29;20221;-76
2022/11/09 12:46:38;;;;;;;12.80;9.90;;;13.80;1.00;;;;;;4897284;29;20211;-76
2022/11/09 12:49:06;;;;;;;14.93;10.00;;;13.70;1.00;;;;;;4901292;29;20622;-76
2022/11/09 12:51:34;;;;;;;15.90;10.73;;;13.60;1.00;;;;;;4897118;29;20214;-78
2022/11/09 12:54:08;;;;;;;14.97;10.03;;;13.60;1.00;;;;;;4897112;29;20265;-78
2022/11/09 12:56:44;;;;;;;14.87;10.37;;;13.50;1.00;;;;;;4897225;29;20246;-77
2022/11/09 12:59:36;;;;;;;15.73;10.53;;;13.50;1.00;;;;;;4896745;29;20619;-77
2022/11/09 13:02:04;;;;;;;13.83;9.87;;;13.60;99.90;;;;;;4904743;29;20195;-80
2022/11/09 13:04:32;;;;;;;17.40;10.57;;;13.70;6.70;;;;;;4911980;29;20253;-80
2022/11/09 13:07:45;;;;;;;14.15;9.70;;;13.80;60.60;;;;;;4896744;29;20692;-80
2022/11/09 13:10:28;;;;;;;13.27;9.23;;;13.90;1.00;;;;;;4869480;29;20195;-80
2022/11/09 13:13:21;;;;;;;12.27;9.40;;;13.90;1.00;;;;;;4857678;29;20195;-77